»·PEaware :: N2BF KSLC-KJAC

N2BF :: KSLC-KJAC

FLIGHT INFORMATION

Flight Status: Arrived
Operator: Privately registered:
United States
More flights under this callsign
Pilot: Ben F. (2808)
Aircraft: BOEING 737-200
(B732)
More flights by this aircraft type
Origin: KSLC Salt Lake City Intl
United States
Destination: KJAC Jackson Hole
United States
More flights between these airports :: More routes between these airports
Route: +SLC4 MLD V465 DNW
File this flight plan on PilotEdge
Remarks:
Altitude:
(Current/Filed)
23,000ft
Speed:
(Current/Filed)
393kts
Departed: 10-Aug-19 10:08 AM
Arrived: 10-Aug-19 10:46 AM
Distance/Time
Traveled:
178nm/0:38
Distance/Time
To Go:
Arrived

Flight Plot

Page will automatically refresh every two minutes.

Flight plan parsing failed; only flown route is shown


Map Options




Map Legend


Flown Route
Filed Route
Departure Airport
Arrival Airport
Navaid (VOR, NDB)
Fix

Horizontal Profiles

Position Reports

Time Latitude Longitude Heading Altitude Ground
Speed
10-Aug-19 09:44 40.779289 -111.958602 180 4236ft 0kts
10-Aug-19 09:45 40.779289 -111.958602 180 4236ft 0kts
10-Aug-19 09:46 40.779289 -111.958602 180 4236ft 0kts
10-Aug-19 09:47 40.779289 -111.958602 180 4236ft 0kts
10-Aug-19 09:48 40.779289 -111.958602 180 4236ft 0kts
10-Aug-19 09:49 40.779289 -111.958602 180 4236ft 0kts
10-Aug-19 09:50 40.779289 -111.958602 180 4236ft 0kts
10-Aug-19 09:51 40.779289 -111.958602 180 4236ft 0kts
10-Aug-19 09:52 40.779289 -111.958602 180 4236ft 0kts
10-Aug-19 09:53 40.779289 -111.958602 180 4236ft 0kts
10-Aug-19 09:54 40.779289 -111.958602 180 4236ft 0kts
10-Aug-19 09:55 40.779289 -111.958602 180 4236ft 0kts
10-Aug-19 09:56 40.779289 -111.958602 180 4236ft 0kts
10-Aug-19 09:57 40.779289 -111.958602 180 4236ft 0kts
10-Aug-19 09:58 40.779289 -111.958602 180 4236ft 0kts
10-Aug-19 09:59 40.779288 -111.958602 180 4236ft 0kts
10-Aug-19 10:00 40.778834 -111.959405 268 4236ft 6kts
10-Aug-19 10:01 40.783890 -111.960004 0 4236ft 28kts
10-Aug-19 10:02 40.791541 -111.960055 3 4236ft 24kts
10-Aug-19 10:03 40.798176 -111.960041 0 4236ft 20kts
10-Aug-19 10:04 40.799308 -111.960255 308 4236ft 0kts
10-Aug-19 10:05 40.799308 -111.960255 308 4236ft 0kts
10-Aug-19 10:06 40.798245 -111.962075 179 4236ft 0kts
10-Aug-19 10:07 40.768843 -111.963830 186 4807ft 170kts
10-Aug-19 10:08 40.756106 -112.016300 303 7014ft 207kts
10-Aug-19 10:09 40.801903 -112.062834 343 9650ft 207kts
10-Aug-19 10:10 40.871512 -112.079668 347 11069ft 283kts
10-Aug-19 10:11 40.956989 -112.102018 347 13136ft 330kts
10-Aug-19 10:12 41.057448 -112.129389 346 14691ft 380kts
10-Aug-19 10:13 41.160877 -112.157850 345 16936ft 394kts
10-Aug-19 10:14 41.271697 -112.188952 345 19002ft 406kts
10-Aug-19 10:15 41.385840 -112.221229 345 20871ft 417kts
10-Aug-19 10:16 41.503139 -112.254537 344 22549ft 427kts
10-Aug-19 10:17 41.625077 -112.289375 345 23083ft 462kts
10-Aug-19 10:18 41.760050 -112.316976 6 23075ft 506kts
10-Aug-19 10:19 41.881779 -112.220441 38 23073ft 498kts
10-Aug-19 10:20 41.996761 -112.110184 35 23091ft 496kts
10-Aug-19 10:21 42.108316 -112.006029 35 23131ft 496kts
10-Aug-19 10:22 42.222813 -111.898529 35 23164ft 495kts
10-Aug-19 10:23 42.337803 -111.790085 35 23191ft 495kts
10-Aug-19 10:25 42.453093 -111.680847 35 23192ft 496kts
10-Aug-19 10:26 42.568603 -111.570909 35 23194ft 497kts
10-Aug-19 10:27 42.684108 -111.460460 35 23174ft 498kts
10-Aug-19 10:28 42.799058 -111.350031 35 23169ft 499kts
10-Aug-19 10:29 42.912425 -111.240109 36 23167ft 499kts
10-Aug-19 10:30 43.026741 -111.128122 36 23168ft 499kts
10-Aug-19 10:31 43.134572 -111.022247 36 22372ft 482kts
10-Aug-19 10:32 43.240383 -110.918683 36 21160ft 438kts
10-Aug-19 10:33 43.343773 -110.831265 24 19426ft 417kts
10-Aug-19 10:34 43.449285 -110.764857 23 17580ft 403kts
10-Aug-19 10:35 43.551755 -110.700103 23 15738ft 391kts
10-Aug-19 10:36 43.651137 -110.637167 23 13947ft 380kts
10-Aug-19 10:37 43.746822 -110.576418 23 12810ft 349kts
10-Aug-19 10:38 43.832715 -110.527893 357 12300ft 308kts
10-Aug-19 10:39 43.875059 -110.597676 243 12011ft 232kts
10-Aug-19 10:40 43.819395 -110.634397 196 10828ft 218kts
10-Aug-19 10:41 43.767022 -110.659931 200 9713ft 167kts
10-Aug-19 10:42 43.728832 -110.678565 200 8876ft 141kts
10-Aug-19 10:43 43.689374 -110.697885 199 8043ft 157kts
10-Aug-19 10:44 43.647533 -110.718207 199 7147ft 143kts
10-Aug-19 10:44 43.615557 -110.733743 199 6515ft 144kts
10-Aug-19 10:46 43.600541 -110.739460 18 6460ft 14kts
10-Aug-19 10:47 43.602847 -110.737985 100 6460ft 3kts
10-Aug-19 10:47 43.602756 -110.737566 109 6460ft 0kts
10-Aug-19 10:49 43.602756 -110.737566 109 6460ft 0kts

Navigation Log

Ident Type
Flight plan parsing failed, navigation log unavailable